createdAt,value
2022-09-01T00:01:54.463Z,65.8
2022-09-01T00:21:54.431Z,67.2
2022-09-01T00:41:54.426Z,67.6
2022-09-01T01:01:54.349Z,69.2
2022-09-01T01:21:54.293Z,70.3
2022-09-01T01:41:54.285Z,71.6
2022-09-01T02:01:54.263Z,71.8
2022-09-01T02:21:54.295Z,71.3
2022-09-01T02:41:54.194Z,74.3
2022-09-01T03:01:54.328Z,75.2
2022-09-01T03:21:54.158Z,73.7
2022-09-01T03:41:54.120Z,76.3
2022-09-01T04:01:54.094Z,77.3
2022-09-01T04:21:54.114Z,77.5
2022-09-01T04:41:54.134Z,77.7
2022-09-01T05:01:54.037Z,77.2
2022-09-01T05:21:54.034Z,77.3
2022-09-01T05:41:53.977Z,79.6
2022-09-01T06:01:53.956Z,81.0
2022-09-01T06:21:53.929Z,80.0
2022-09-01T06:41:53.899Z,77.6
2022-09-01T07:01:53.915Z,78.2
2022-09-01T07:21:53.868Z,76.1
2022-09-01T07:41:53.924Z,74.6
2022-09-01T08:01:53.811Z,73.7
2022-09-01T08:21:53.797Z,71.6
2022-09-01T08:41:53.766Z,70.4
2022-09-01T09:01:53.735Z,68.1
2022-09-01T09:21:53.729Z,63.5
2022-09-01T09:41:53.697Z,62.6
2022-09-01T10:01:53.652Z,60.3
2022-09-01T10:21:53.705Z,59.1
2022-09-01T10:41:53.650Z,57.7
2022-09-01T11:01:53.724Z,57.2
2022-09-01T11:21:53.550Z,55.4
2022-09-01T11:41:53.568Z,52.7
2022-09-01T12:01:53.540Z,49.8
2022-09-01T12:21:53.473Z,52.3
2022-09-01T12:41:53.536Z,46.0
2022-09-01T13:01:53.497Z,43.9
2022-09-01T13:21:53.534Z,46.9
2022-09-01T13:41:53.382Z,44.7
2022-09-01T14:01:53.357Z,41.1
2022-09-01T14:21:53.371Z,44.5
2022-09-01T14:41:53.397Z,43.6
2022-09-01T15:01:53.308Z,43.2
2022-09-01T15:41:53.206Z,44.0
2022-09-01T16:01:53.187Z,45.7
2022-09-01T16:21:53.170Z,46.0
2022-09-01T16:41:53.143Z,45.9
2022-09-01T17:01:53.123Z,47.4
2022-09-01T17:21:53.172Z,48.9
2022-09-01T17:41:53.073Z,49.6
2022-09-01T18:01:53.065Z,49.0
2022-09-01T18:21:52.998Z,50.7
2022-09-01T18:41:52.984Z,52.2
2022-09-01T19:01:52.943Z,51.7
2022-09-01T19:21:52.927Z,52.0
2022-09-01T19:41:52.910Z,52.9
2022-09-01T20:01:52.891Z,54.2
2022-09-01T20:41:52.937Z,55.4
2022-09-01T21:01:52.789Z,56.7
2022-09-01T21:21:52.766Z,57.1
2022-09-01T21:41:52.741Z,59.5
2022-09-01T22:01:52.743Z,57.1
2022-09-01T22:21:52.689Z,57.7
2022-09-01T22:41:52.661Z,58.3
2022-09-01T23:01:52.645Z,58.3
2022-09-01T23:21:52.612Z,59.2
2022-09-01T23:41:52.674Z,57.4
